Weather observations for the past three days for
Osceola Municipal Airport
Imperial (Metric)
Date Time (cdt) Wind (mph) Vis. (mi.) Weather Sky Cond. Temperature (ºF) Relative Humidity Wind Chill (°F) Heat Index (°F) Pressure Precipitation (in)
Air Dwpt 6 hour altimeter (in) sea level (mb) 1 hr 3 hr 6 hr
Max. Min.
04 20:35 NW 14 G 23 10.00 Fair CLR 65.5 30.2 27% 29.65 0.0
04 20:15 N 16 G 28 10.00 Fair CLR 67.3 30.9 26% 29.63 0.0
04 19:55 NW 20 G 28 7.00 Fair CLR 69.8 31.6 24% 29.62 0.0
04 19:35 N 20 G 25 7.00 Fair CLR 71.6 32.4 24% 29.6 0.0
04 19:15 NW 12 G 18 7.00 Fair CLR 73.4 34.5 24% 29.59 0.0
04 18:55 N 18 G 24 7.00 Fair CLR 75.4 33.6 83.3 75.4 22% 76 29.58 0.0
04 18:35 N 17 G 26 10.00 Fair CLR 77 35.8 22% 77 29.58 0.0
04 18:15 NW 20 G 24 10.00 Fair CLR 79.3 38.1 23% 78 29.56 0.0
04 17:55 NW 15 G 20 10.00 Fair CLR 80.6 38.5 22% 79 29.56 0.0
04 17:35 NW 13 7.00 Fair CLR 81.5 38.3 21% 80 29.55 0.0
04 17:15 W 12 7.00 Fair CLR 81.1 33.4 18% 79 29.54 0.0
04 16:55 W 15 G 20 10.00 Fair CLR 81.7 33.3 17% 80 29.54 0.0
04 16:30 W 13 G 21 10.00 Partly Cloudy SCT100 82.4 33.4 17% 80 29.54 0.0
04 16:15 W 17 G 23 7.00 Partly Cloudy SCT100 82.2 35.6 19% 80 29.54 0.0
04 15:55 W 12 G 22 7.00 Partly Cloudy SCT095 81.1 39 22% 79 29.54 0.0
04 15:35 W 12 7.00 Partly Cloudy SCT095 82.9 40.8 22% 81 29.55 0.0
04 15:15 W 12 G 18 7.00 Partly Cloudy SCT095 81.5 39.7 23% 80 29.55 0.0
04 14:55 W 15 G 21 10.00 Partly Cloudy SCT085 82.2 42.3 24% 80 29.55 0.0
04 14:35 W 13 G 17 10.00 Partly Cloudy SCT085 82.2 43 25% 80 29.56 0.0
04 14:15 SW 13 G 18 10.00 Partly Cloudy SCT085 SCT100 83.1 42.1 23% 81 29.56 0.0
04 13:55 W 12 G 18 10.00 Fair CLR 81.9 42.3 25% 80 29.56 0.0
04 13:35 SW 12 G 16 10.00 Fair CLR 81.9 43.9 26% 80 29.57 0.0
04 13:15 SW 10 G 17 10.00 Fair CLR 80.8 46.2 30% 80 29.57 0.0
04 12:55 SW 13 G 17 7.00 Fair CLR 80.1 45.5 80.4 54.7 30% 79 29.57 0.0
04 12:35 SW 10 7.00 Fair CLR 79.7 47.3 32% 79 29.57 0.0
04 12:15 SW 9 7.00 Fair CLR 79.5 48.4 34% 79 29.57 0.0
04 11:55 S 10 10.00 Fair CLR 78.6 45.7 31% 79 29.57 0.0
04 11:35 SW 9 7.00 Fair CLR 77.2 46.6 34% 78 29.57 0.0
04 11:15 SW 9 7.00 Fair CLR 76.1 48.7 38% 78 29.57 0.0
04 10:55 SW 6 7.00 Fair CLR 74.3 47.8 39% 29.58 0.0
04 10:35 SW 9 10.00 Fair CLR 73 48.7 42% 29.58 0.0
04 10:15 SW 8 7.00 Fair CLR 71.4 48.6 44% 29.58 0.0
04 09:55 SW 10 7.00 Fair CLR 70.2 48.2 46% 29.59 0.0
04 09:35 SW 14 7.00 Fair CLR 68.9 46.4 45% 29.59 0.0
04 09:15 SW 14 7.00 Fair CLR 68.5 46.8 46% 29.59 0.0
04 08:55 SW 9 7.00 Fair CLR 66.6 47.1 50% 29.59 0.0
04 08:35 S 9 10.00 Fair CLR 64.6 46.9 53% 29.6 0.0
04 08:15 S 9 7.00 Fair CLR 61.3 45 55% 29.6 0.0
04 07:55 S 8 7.00 Fair CLR 60.1 44.1 56% 29.6 0.0
04 07:35 S 8 7.00 Fair CLR 58.5 43.2 57% 29.6 0.0
04 07:15 S 8 7.00 Fair CLR 56.5 42.3 59% 29.6 0.0
04 06:55 S 8 10.00 Fair CLR 54.5 41.7 54.5 49.8 62% 29.61 0.0
04 06:35 S 7 10.00 Fair CLR 52 41.2 67% 29.61 0.0
04 06:15 S 6 10.00 Fair CLR 50.7 41 69% 29.61 0.0
04 05:55 S 6 10.00 Fair CLR 50.9 40.1 67% 29.62 0.0
04 05:35 S 6 10.00 Fair CLR 50.2 39.6 67% 29.62 0.0
04 05:15 S 6 10.00 Fair CLR 52.5 39.9 62% 29.63 0.0
04 04:55 S 7 10.00 Fair CLR 52.2 39.9 63% 29.63 0.0
04 04:35 S 7 10.00 Fair CLR 54 39.6 58% 29.65 0.0
04 04:15 S 7 10.00 Fair CLR 53.4 39.7 60% 29.66 0.0
04 03:55 S 7 10.00 Fair CLR 51.6 40.1 65% 29.67 0.0
04 03:35 S 6 10.00 Fair CLR 52.5 40.1 63% 29.67 0.0
04 03:15 S 7 10.00 Fair CLR 52.9 39.7 61% 29.68 0.0
04 02:55 S 5 10.00 Fair CLR 51.8 39.6 63% 29.69 0.0
04 02:35 S 6 10.00 Fair CLR 54.1 39.2 57% 29.69 0.0
04 02:15 SW 5 10.00 Fair CLR 53.8 39.4 58% 29.7 0.0
04 01:55 S 6 10.00 Fair CLR 53.1 40.1 62% 29.71 0.0
04 01:35 S 6 10.00 Fair CLR 53.4 40.1 61% 29.72 0.0
04 01:15 SW 6 10.00 Fair CLR 52.9 40.6 63% 29.73 0.0
04 00:55 SW 5 10.00 Fair CLR 53.8 39.9 71.1 53.6 60% 29.74 0.0
04 00:35 SW 6 10.00 Fair CLR 54.3 39.9 58% 29.74 0.0
04 00:15 SW 5 10.00 Fair CLR 55.9 38.3 52% 29.74 0.0
03 23:55 SW 6 10.00 Fair CLR 54.9 39.2 56% 29.74 0.0
03 23:35 SW 5 10.00 Fair CLR 59 36.7 44% 29.74 0.0
03 23:15 SW 5 10.00 Fair CLR 57.9 37.2 46% 29.75 0.0
03 22:55 SW 6 7.00 Fair CLR 55.9 39.2 54% 29.76 0.0
03 22:35 SW 6 10.00 Fair CLR 55.8 39 54% 29.77 0.0
03 22:15 SW 6 10.00 Fair CLR 57.9 38.1 48% 29.77 0.0
03 21:55 S 6 7.00 Fair CLR 56.8 39.4 52% 29.78 0.0
03 21:35 SW 6 10.00 Fair CLR 59 37.9 46% 29.77 0.0
03 21:15 SW 7 10.00 Fair CLR 60.1 37.8 44% 29.77 0.0
03 20:55 SW 7 7.00 Fair CLR 60.1 38.8 46% 29.77 0.0
03 20:35 SW 5 10.00 Fair CLR 62.8 38.1 40% 29.77 0.0
03 20:15 SW 5 5.00 Fair with Haze CLR 65.3 37 35% 29.76 0.0
03 19:55 SW 3 7.00 Fair CLR 66.6 35.4 32% 29.77 0.0
03 19:35 SW 6 10.00 Fair CLR 68.2 34.5 29% 29.77 0.0
03 19:15 W 6 10.00 Fair CLR 70 33.6 26% 29.77 0.0
03 18:55 W 8 7.00 Fair CLR 70.7 34.7 75.2 69.1 27% 29.78 0.0
03 18:35 W 8 10.00 Fair CLR 70.2 34.5 27% 29.78 0.0
03 18:15 W 9 10.00 Fair CLR 71.8 34.2 25% 29.78 0.0
03 17:55 W 10 10.00 Fair CLR 73 32.9 23% 29.79 0.0
03 17:35 W 8 10.00 Fair CLR 72.1 32.7 23% 29.79 0.0
03 17:15 W 10 G 16 10.00 Fair CLR 72.7 32.9 23% 29.79 0.0
03 16:55 NW 10 10.00 Fair CLR 72 32.2 23% 29.79 0.0
03 16:35 NW 8 7.00 Fair CLR 73 32.2 22% 29.79 0.0
03 16:15 W 12 G 20 7.00 Fair CLR 74.3 32.4 21% 29.79 0.0
03 15:55 NW 14 G 18 10.00 Fair CLR 72.9 30.9 21% 29.79 0.0
03 15:35 W 16 G 20 5.00 Fair with Haze CLR 75 32 21% 76 29.8 0.0
03 15:15 W 10 G 20 10.00 Fair CLR 72.1 36.5 27% 29.81 0.0
03 14:55 W 12 7.00 Fair CLR 72.7 36.7 27% 29.81 0.0
03 14:35 W 16 7.00 Fair CLR 72.9 37.6 28% 29.81 0.0
03 14:15 NW 13 G 26 10.00 Fair CLR 72.5 34.3 25% 29.82 0.0
03 13:55 W 12 G 24 7.00 Fair CLR 72.9 34.9 25% 29.82 0.0
03 13:35 W 17 G 23 7.00 Fair CLR 71.4 37.2 29% 29.82 0.0
03 13:15 W 14 G 17 5.00 Fair with Haze CLR 70.3 41 35% 29.83 0.0
03 12:55 W 13 G 20 10.00 Fair CLR 69.4 40.3 69.4 52.7 35% 29.82 0.0
03 12:35 W 13 G 22 5.00 Fair with Haze CLR 68.2 39.9 36% 29.84 0.0
03 12:15 SW 15 G 20 7.00 Fair CLR 67.5 41.9 40% 29.83 0.0
03 11:55 SW 14 G 18 7.00 Fair CLR 63.7 41 44% 29.84 0.0
03 11:35 SW 13 G 17 7.00 Fair CLR 62.8 40.5 44% 29.84 0.0
03 11:15 SW 14 7.00 Fair CLR 62.1 40.1 45% 29.85 0.0
03 10:55 W 17 G 22 10.00 Fair CLR 61.3 39 44% 29.85 0.0
03 10:35 SW 15 7.00 Fair CLR 62.4 40.5 45% 29.84 0.0
03 10:15 SW 14 G 21 5.00 Fair with Haze CLR 59 39.2 48% 29.85 0.0
03 09:55 SW 13 G 18 10.00 Fair CLR 56.5 37.4 49% 29.83 0.0
03 09:35 SW 16 10.00 Fair CLR 55.6 36.5 49% 29.84 0.0
03 09:15 SW 21 G 29 10.00 Fair and Breezy CLR 56.3 35.8 46% 29.84 0.0
03 08:55 SW 18 G 28 10.00 Fair CLR 54.9 35.1 47% 29.84 0.0
03 08:35 SW 17 G 23 10.00 Fair CLR 54.3 34.7 48% 29.85 0.0
03 08:15 SW 17 G 24 10.00 Fair CLR 53.6 34 48% 29.86 0.0
03 07:55 SW 15 G 22 10.00 Fair CLR 52.9 33.8 48% 29.87 0.0
03 07:35 SW 18 G 24 10.00 Fair CLR 52.7 33.1 47% 29.86 0.0
03 07:15 SW 17 G 24 10.00 Fair CLR 52.9 32.4 46% 29.86 0.0
03 06:55 S 21 G 26 10.00 Fair and Breezy CLR 52.9 32 52.9 48 45% 29.85 0.0
03 06:35 S 17 G 23 10.00 Fair CLR 52.7 32 45% 29.84 0.0
03 06:15 S 18 G 23 10.00 Fair CLR 52.7 32 45% 29.84 0.0
03 05:55 S 20 G 24 10.00 Fair CLR 52.2 32 46% 29.85 0.0
03 05:35 S 16 G 26 10.00 Fair CLR 52 32 47% 29.86 0.0
03 05:15 S 20 G 25 10.00 Fair CLR 52.2 32 46% 29.87 0.0
03 04:55 S 18 10.00 Fair CLR 52.2 32 46% 29.88 0.0
03 04:35 S 15 10.00 Fair CLR 51.8 32 47% 29.89 0.0
03 04:15 S 12 10.00 Fair CLR 50.9 32.2 49% 29.9 0.0
03 03:55 S 10 10.00 Fair CLR 50.4 32.4 50% 29.91 0.0
03 03:35 S 13 10.00 Fair CLR 50.2 32 50% 29.89 0.0
03 03:15 S 15 10.00 Fair CLR 50.5 31.6 48% 29.91 0.0
03 02:55 S 15 10.00 Fair CLR 50.2 31.8 49% 29.91 0.0
03 02:35 S 14 10.00 Fair CLR 49.3 32 52% 45 29.92 0.0
03 02:15 S 10 10.00 Fair CLR 48.2 32 54% 44 29.93 0.0
03 01:55 S 9 10.00 Fair CLR 48.6 31.5 52% 45 29.94 0.0
03 01:35 S 9 10.00 Fair CLR 48.9 31.3 51% 45 29.95 0.0
03 01:15 S 10 10.00 Fair CLR 49.5 30.9 49% 46 29.96 0.0
03 00:55 S 9 10.00 Fair CLR 50 30.7 61.3 49.5 48% 47 29.96 0.0
03 00:35 S 9 10.00 Fair CLR 50 30.7 48% 47 29.97 0.0
03 00:15 S 9 10.00 Fair CLR 50.5 30.6 46% 29.98 0.0
02 23:55 S 9 10.00 Fair CLR 50.7 30.9 47% 29.98 0.0
02 23:35 S 8 10.00 Fair CLR 50.4 31.5 48% 29.99 0.0
02 23:15 S 8 10.00 Fair CLR 50.4 31.8 49% 29.99 0.0
02 22:55 S 7 10.00 Fair CLR 50.4 32 49% 30 0.0
02 22:35 S 7 10.00 Partly Cloudy SCT120 50 32.2 51% 48 30 0.0
02 22:15 S 7 7.00 Partly Cloudy SCT120 51.6 32 47% 30.01 0.0
02 21:55 S 7 7.00 Fair CLR 52 31.6 46% 30.02 0.0
02 21:35 S 6 7.00 Fair CLR 51.6 32 47% 30.02 0.0
02 21:15 S 6 10.00 Fair CLR 53.2 31.3 43% 30.02 0.0
02 20:55 S 6 10.00 Fair CLR 53.8 32 44% 30.02 0.0
02 20:35 S 6 10.00 Fair CLR 54 32 43% 30.02 0.0
02 20:15 S 7 10.00 Fair CLR 55 32.7 43% 30.02 0.0
02 19:55 SW 5 7.00 Fair CLR 57.4 29.8 35% 30.02 0.0
02 19:35 SW 6 10.00 Fair CLR 59 28 31% 30.02 0.0
02 19:15 SW 6 10.00 Fair CLR 60.6 26.6 27% 30.02 0.0
02 18:55 SW 6 7.00 Fair CLR 61.3 26.2 62.8 56.7 26% 30.03 0.0
02 18:35 SW 10 7.00 Fair CLR 62.1 26.6 26% 30.03 0.0
02 18:15 W 8 7.00 Fair CLR 62.1 25.3 25% 30.04 0.0
02 17:55 SW 9 10.00 Fair CLR 62.6 25.9 25% 30.04 0.0
02 17:35 W 6 G 16 7.00 Fair CLR 62.6 27 26% 30.05 0.0
02 17:15 SW 7 7.00 Fair CLR 62.2 27.1 26% 30.05 0.0
02 16:55 W 7 7.00 Fair CLR 62.4 27.3 26% 30.05 0.0
02 16:35 W 8 7.00 Fair CLR 62.6 27.5 26% 30.06 0.0
02 16:15 SW 5 7.00 Fair CLR 62.2 26.2 25% 30.07 0.0
02 15:55 W 7 7.00 Fair CLR 61.7 25.7 25% 30.08 0.0
02 15:35 W 6 7.00 Fair CLR 61 24.6 25% 30.09 0.0
02 15:15 Calm 7.00 Fair CLR 60.4 24.1 25% 30.09 0.0
02 14:55 W 8 7.00 Fair CLR 59.9 24.6 26% 30.1 0.0
02 14:35 Calm 7.00 Fair CLR 60.1 24.6 26% 30.11 0.0
02 14:15 W 12 10.00 Fair CLR 59.5 26.2 28% 30.11 0.0
02 13:55 NW 9 7.00 Fair CLR 58.5 25 28% 30.12 0.0
02 13:35 NW 10 7.00 Fair CLR 58.6 26.1 29% 30.13 0.0
02 13:15 NW 7 7.00 Fair CLR 58.1 25.2 28% 30.13 0.0
02 12:55 SW 6 10.00 Fair CLR 57.7 25.2 57.9 35.8 29% 30.14 0.0
02 12:35 W 10 7.00 Fair CLR 57.2 25.7 30% 30.15 0.0
02 12:15 NW 3 7.00 Fair CLR 56.1 25.2 30% 30.15 0.0
02 11:55 SW 8 7.00 Fair CLR 56.1 25.9 31% 30.15 0.0
02 11:35 Calm 7.00 Fair CLR 54.9 23.5 30% 30.16 0.0
02 11:15 N 3 7.00 Fair CLR 54.5 23.4 30% 30.16 0.0
02 10:55 Calm 7.00 Fair CLR 54.5 24.1 31% 30.16 0.0
02 10:35 W 9 7.00 Fair CLR 54.7 25 32% 30.16 0.0
02 10:15 W 6 7.00 Fair CLR 53.6 23.5 31% 30.16 0.0
02 09:55 Calm 7.00 Fair CLR 53.1 25.2 34% 30.16 0.0
02 09:35 W 5 7.00 Fair CLR 52 25.3 36% 30.16 0.0
02 09:15 Calm 7.00 Fair CLR 49.6 31.3 49% 30.16 0.0
02 08:55 N 3 5.00 Fair with Haze CLR 47.8 32.4 55% 30.16 0.0
02 08:35 Calm 7.00 Fair CLR 45.7 32.7 61% 30.16 0.0
02 08:15 NW 5 7.00 Fair CLR 43.5 32.4 65% 41 30.16 0.0
02 07:55 NW 6 5.00 Fair with Haze CLR 41 32 70% 38 30.16 0.0
02 07:35 NW 5 5.00 Fair with Haze CLR 39.4 32.2 75% 37 30.16 0.0
02 07:15 NW 7 7.00 Fair CLR 36.5 31.6 83% 32 30.15 0.0
02 06:55 NW 7 7.00 Fair CLR 35.8 30.9 43 33.4 83% 31 30.14 0.0
02 06:35 NW 6 7.00 Fair CLR 33.8 30 86% 29 30.13 0.0
02 06:15 NW 6 7.00 Fair CLR 33.4 30 87% 29 30.13 0.0
02 05:55 W 6 10.00 Fair CLR 33.4 29.8 87% 29 30.13 0.0
02 05:35 W 6 7.00 Fair CLR 33.8 30.4 87% 29 30.13 0.0
02 05:15 NW 6 7.00 Fair CLR 35.1 30.4 83% 31 30.12 0.0
02 04:55 NW 5 10.00 Fair CLR 36.7 31.3 81% 33 30.12 0.0
02 04:35 NW 6 7.00 Fair CLR 36.5 30.9 80% 32 30.12 0.0
02 04:15 NW 6 7.00 Fair CLR 36.5 30.9 80% 32 30.12 0.0
02 03:55 NW 6 7.00 Fair CLR 38.3 31.3 76% 34 30.12 0.0
02 03:35 NW 7 7.00 Fair CLR 37.9 31.3 77% 33 30.11 0.0
02 03:15 NW 6 10.00 Fair CLR 40.1 31.8 72% 37 30.11 0.0
02 02:55 NW 7 7.00 Fair CLR 39.7 32 74% 35 30.11 0.0
02 02:35 NW 5 7.00 Fair CLR 39.9 32 73% 37 30.11 0.0
02 02:15 NW 6 7.00 Fair CLR 39.4 32 75% 36 30.11 0.0
02 01:55 NW 7 7.00 Fair CLR 41.7 32.2 69% 38 30.12 0.0
02 01:35 NW 5 10.00 Fair CLR 41.9 32.4 69% 40 30.11 0.0
02 01:15 W 6 7.00 Partly Cloudy SCT090 42.1 33.3 71% 39 30.12 0.0
02 00:55 W 5 7.00 Overcast OVC090 43.2 33.1 55.2 43.2 68% 41 30.11 0.0
02 00:35 W 3 10.00 Overcast SCT075 OVC090 43.9 33.8 68% 30.11 0.0
02 00:15 W 3 7.00 Overcast SCT075 OVC090 44.6 33.6 65% 30.11 0.0
01 23:55 Calm 10.00 Mostly Cloudy SCT065 BKN090 46.4 32 57% 30.11 0.0
01 23:35 NW 5 10.00 Overcast BKN065 OVC090 45 33.8 65% 43 30.1 0.0
01 23:15 Calm 10.00 Overcast SCT065 OVC090 46.8 34.3 62% 30.1 0.0
01 22:55 Calm 7.00 Overcast OVC090 47.3 34.2 60% 30.1 0.0
01 22:35 N 3 10.00 Overcast OVC090 48.2 33.1 56% 30.1 0.0
01 22:15 Calm 10.00 Overcast SCT070 OVC090 48.2 33.1 56% 30.09 0.0
01 21:55 Calm 10.00 Overcast BKN070 OVC080 48.7 34.9 59% 30.09 0.0
01 21:35 N 5 7.00 Overcast OVC070 49.1 33.3 55% 48 30.08 0.0
01 21:15 N 5 7.00 Overcast BKN070 OVC095 48.6 33.6 56% 47 30.08 0.0
01 20:55 N 3 10.00 Overcast SCT070 OVC095 48.2 33.8 58% 30.07 0.0
Date Time (cdt) Wind (mph) Vis. (mi.) Weather Sky Cond. Air Dwpt Max. Min. Relative Humidity Wind Chill (°F) Heat Index (°F) altimeter (in) sea level (mb) 1 hr 3 hr 6 hr
6 hour
Temperature (ºF) Pressure Precipitation (in)